Terminal Aerodrome Forecast
Issued by NWS

Home | Current Version | Previous Version | Graphics & Text | Print | Product List | Glossary On
Versions: 1 2 3 4 5 6 7 8 9 10 11 12 13 14 15 16 17 18 19 20 21 22 23 24
000
FTUS41 KCLE 031900 AAA
TAFFDY
TAF AMD
KFDY 031928Z 0319/0418 17013G20KT 3SM -FZRA BR SCT006 OVC010
     FM032100 19013G20KT 2SM -RA BR OVC005 WS020/23040KT
     FM040100 25015G25KT 6SM -RA BR SCT005 OVC015 WS020/22045KT
     FM040400 28015KT 6SM -SN BKN018
     FM041200 29012KT P6SM BKN045=

USA.gov is the U.S. government's official web portal to all federal, state and local government web resources and services.